| time (UTC) | temp C | wind direction | speed KPH | gust KPH | rain 1hr cm | rain 24hr cm | rain mn cm | humidity % | barometer mb |
| 20260503053615 | 14 | 106 | 0.0 | 1.6 | 0.00 | 0.64 | 0.64 | 1 | 1010.6 |
| 20260503053117 | 14 | 107 | 0.0 | 1.6 | 0.00 | 0.64 | 0.64 | 1 | 1010.6 |
| 20260503052617 | 14 | 115 | 0.0 | 3.2 | 0.00 | 0.64 | 0.64 | 1 | 1010.6 |
| 20260503052111 | 14 | 117 | 0.0 | 3.2 | 0.00 | 0.64 | 0.64 | 1 | 1010.7 |
| 20260503051604 | 13 | 114 | 0.0 | 3.2 | 0.00 | 0.64 | 0.64 | 1 | 1010.7 |
| 20260503051103 | 13 | 95 | 0.0 | 1.6 | 0.00 | 0.64 | 0.64 | 1 | 1010.7 |
| 20260503050603 | 13 | 327 | 0.0 | 0.0 | 0.00 | 0.64 | 0.64 | 1 | 1010.7 |
| 20260503050109 | 13 | 101 | 0.0 | 1.6 | 0.00 | 0.64 | 0.64 | 1 | 1010.7 |
| 20260503045603 | 13 | 101 | 0.0 | 1.6 | 0.00 | 0.64 | 0.64 | 1 | 1010.7 |
| 20260503045102 | 14 | 91 | 0.0 | 1.6 | 0.00 | 0.64 | 0.64 | 1 | 1010.7 |
| 20260503044604 | 14 | 94 | 0.0 | 1.6 | 0.03 | 0.64 | 0.64 | 1 | 1010.7 |
| 20260503044101 | 14 | 93 | 0.0 | 1.6 | 0.05 | 0.64 | 0.64 | 1 | 1010.7 |
| 20260503043603 | 14 | 217 | 0.0 | 3.2 | 0.05 | 0.64 | 0.64 | 1 | 1010.7 |
| 20260503043327 | 14 | 111 | 0.0 | 4.8 | 0.05 | 0.64 | 0.64 | 1 | 1010.6 |
| 20260503042602 | 14 | 113 | 0.0 | 4.8 | 0.05 | 0.64 | 0.64 | 1 | 1010.6 |
| 20260503042551 | 14 | 118 | 0.0 | 3.2 | 0.05 | 0.64 | 0.64 | 1 | 1010.6 |
| 20260503041616 | 14 | 120 | 0.0 | 3.2 | 0.05 | 0.64 | 0.64 | 1 | 1010.6 |
| 20260503041102 | 14 | 108 | 0.0 | 4.8 | 0.05 | 0.64 | 0.64 | 1 | 1010.7 |
| 20260503040605 | 14 | 106 | 1.6 | 4.8 | 0.05 | 0.64 | 0.64 | 1 | 1010.7 |
| 20260503040107 | 14 | 110 | 0.0 | 3.2 | 0.05 | 0.64 | 0.64 | 1 | 1010.8 |
| 20260503035605 | 14 | 96 | 0.0 | 3.2 | 0.05 | 0.64 | 0.64 | 1 | 1011.0 |
| 20260503035104 | 14 | 108 | 0.0 | 1.6 | 0.05 | 0.64 | 0.64 | 1 | 1010.8 |
| 20260503034826 | 14 | 95 | 0.0 | 3.2 | 0.05 | 0.61 | 0.61 | 1 | 1011.0 |
| 20260503034104 | 14 | 105 | 0.0 | 3.2 | 0.05 | 0.61 | 0.61 | 1 | 1011.2 |
| 20260503033605 | 13 | 95 | 0.0 | 1.6 | 0.05 | 0.58 | 0.58 | 1 | 1011.4 |
| 20260503033116 | 13 | 91 | 0.0 | 3.2 | 0.05 | 0.58 | 0.58 | 1 | 1011.5 |
| 20260503032824 | 13 | 85 | 0.0 | 3.2 | 0.05 | 0.58 | 0.58 | 1 | 1011.6 |
| 20260503032333 | 13 | 174 | 0.0 | 3.2 | 0.05 | 0.58 | 0.58 | 1 | 1011.7 |
| 20260503031603 | 13 | 167 | 0.0 | 3.2 | 0.05 | 0.58 | 0.58 | 1 | 1011.7 |
| 20260503031104 | 13 | 109 | 0.0 | 4.8 | 0.05 | 0.58 | 0.58 | 1 | 1011.7 |
| 20260503030604 | 13 | 178 | 0.0 | 4.8 | 0.05 | 0.58 | 0.58 | 1 | 1011.7 |
| 20260503030107 | 13 | 186 | 0.0 | 3.2 | 0.05 | 0.58 | 0.58 | 1 | 1011.7 |
| 20260503025557 | 13 | 127 | 0.0 | 3.2 | 0.05 | 0.58 | 0.58 | 1 | 1011.6 |
| 20260503025051 | 13 | 122 | 0.0 | 3.2 | 0.05 | 0.58 | 0.58 | 1 | 1011.6 |
| 20260503024545 | 13 | 94 | 0.0 | 1.6 | 0.05 | 0.56 | 0.56 | 1 | 1011.5 |
| 20260503024039 | 13 | 130 | 0.0 | 1.6 | 0.03 | 0.53 | 0.53 | 1 | 1011.7 |
| 20260503023533 | 13 | 113 | 0.0 | 1.6 | 0.00 | 0.51 | 0.51 | 1 | 1011.7 |
| 20260503023028 | 13 | 102 | 0.0 | 0.0 | 0.00 | 0.51 | 0.51 | 1 | 1011.7 |
| 20260503022752 | 13 | 158 | 0.0 | 0.0 | 0.00 | 0.51 | 0.51 | 1 | 1011.7 |
| 20260503022017 | 13 | 157 | 0.0 | 0.0 | 0.00 | 0.51 | 0.51 | 1 | 1011.8 |
| 20260503021518 | 13 | 123 | 0.0 | 1.6 | 0.00 | 0.51 | 0.51 | 1 | 1011.7 |
| 20260503021016 | 13 | 124 | 0.0 | 1.6 | 0.00 | 0.51 | 0.51 | 1 | 1011.8 |
| 20260503020514 | 13 | 124 | 0.0 | 1.6 | 0.00 | 0.51 | 0.51 | 1 | 1011.7 |
| 20260503020012 | 13 | 124 | 0.0 | 1.6 | 0.00 | 0.51 | 0.51 | 1 | 1011.6 |
| 20260503015513 | 13 | 99 | 0.0 | 1.6 | 0.00 | 0.51 | 0.51 | 1 | 1011.6 |
| 20260503015243 | 13 | 110 | 0.0 | 0.0 | 0.00 | 0.51 | 0.51 | 1 | 1011.6 |
| 20260503014510 | 13 | 110 | 0.0 | 0.0 | 0.00 | 0.51 | 0.51 | 1 | 1011.6 |
| 20260503014013 | 13 | 113 | 0.0 | 0.0 | 0.00 | 0.51 | 0.51 | 1 | 1011.6 |
| 20260503013510 | 13 | 110 | 0.0 | 3.2 | 0.00 | 0.51 | 0.51 | 1 | 1011.5 |
| 20260503013007 | 13 | 113 | 0.0 | 3.2 | 0.00 | 0.51 | 0.51 | 1 | 1011.7 |
| 20260503012505 | 14 | 98 | 0.0 | 1.6 | 0.00 | 0.51 | 0.51 | 1 | 1011.7 |
| 20260503012010 | 14 | 106 | 0.0 | 0.0 | 0.00 | 0.51 | 0.51 | 1 | 1011.7 |
| 20260503011504 | 14 | 139 | 0.0 | 3.2 | 0.00 | 0.51 | 0.51 | 1 | 1011.8 |
| 20260503010959 | 14 | 111 | 1.6 | 6.4 | 0.00 | 0.51 | 0.51 | 1 | 1011.9 |
| 20260503010502 | 14 | 117 | 1.6 | 6.4 | 0.00 | 0.51 | 0.51 | 1 | 1011.9 |
| 20260503005958 | 14 | 219 | 0.0 | 3.2 | 0.00 | 0.51 | 0.51 | 1 | 1011.8 |
| 20260503005457 | 14 | 108 | 0.0 | 4.8 | 0.00 | 0.51 | 0.51 | 1 | 1011.9 |
| 20260503004955 | 14 | 103 | 0.0 | 4.8 | 0.00 | 0.51 | 0.51 | 1 | 1011.9 |
| 20260503004455 | 14 | 136 | 1.6 | 6.4 | 0.00 | 0.51 | 0.51 | 1 | 1011.9 |
| 20260503003950 | 14 | 96 | 1.6 | 6.4 | 0.00 | 0.51 | 0.51 | 1 | 1011.9 |
| 20260503003444 | 14 | 101 | 0.0 | 4.8 | 0.00 | 0.51 | 0.51 | 1 | 1012.0 |
| 20260503003208 | 14 | 88 | 0.0 | 3.2 | 0.00 | 0.51 | 0.51 | 1 | 1012.0 |
| 20260503002431 | 14 | 136 | 0.0 | 0.0 | 0.00 | 0.51 | 0.51 | 1 | 1012.0 |
| 20260503001925 | 14 | 109 | 0.0 | 1.6 | 0.00 | 0.51 | 0.51 | 1 | 1012.1 |
| 20260503001419 | 14 | 110 | 0.0 | 1.6 | 0.00 | 0.51 | 0.51 | 1 | 1012.1 |
| 20260503000913 | 14 | 112 | 0.0 | 4.8 | 0.03 | 0.51 | 0.51 | 1 | 1012.2 |
| 20260503000408 | 14 | 281 | 0.0 | 4.8 | 0.10 | 0.51 | 0.51 | 1 | 1012.2 |
| 20260503000119 | 14 | 103 | 0.0 | 1.6 | 0.15 | 0.51 | 0.51 | 1 | 1012.2 |
| 20260502235356 | 15 | 150 | 0.0 | 3.2 | 0.20 | 0.51 | 0.51 | 1 | 1012.1 |
| 20260502234851 | 15 | 230 | 0.0 | 3.2 | 0.25 | 0.51 | 0.51 | 1 | 1012.2 |
| 20260502234345 | 15 | 151 | 1.6 | 6.4 | 0.33 | 0.51 | 0.51 | 1 | 1012.2 |
| 20260502233841 | 15 | 136 | 1.6 | 6.4 | 0.41 | 0.51 | 0.51 | 1 | 1012.2 |
| 20260502233331 | 15 | 188 | 1.6 | 4.8 | 0.43 | 0.51 | 0.51 | 1 | 1012.2 |
| 20260502232825 | 15 | 112 | 1.6 | 6.4 | 0.46 | 0.51 | 0.51 | 1 | 1012.2 |
| 20260502232321 | 15 | 41 | 1.6 | 6.4 | 0.48 | 0.51 | 0.51 | 1 | 1012.2 |
| 20260502232042 | 14 | 181 | 3.2 | 14.5 | 0.48 | 0.51 | 0.51 | 1 | 1012.2 |
| 20260502231310 | 14 | 83 | 4.8 | 14.5 | 0.51 | 0.51 | 0.51 | 1 | 1012.4 |
| 20260502230802 | 14 | 40 | 4.8 | 11.3 | 0.48 | 0.48 | 0.48 | 1 | 1012.4 |
| 20260502230523 | 14 | 97 | 6.4 | 11.3 | 0.41 | 0.41 | 0.43 | 1 | 1012.9 |
| 20260502225751 | 14 | 106 | 6.4 | 14.5 | 0.36 | 0.36 | 0.36 | 1 | 1012.8 |
| 20260502225246 | 14 | 129 | 6.4 | 16.1 | 0.30 | 0.30 | 0.33 | 1 | 1013.1 |
| 20260502224738 | 14 | 82 | 6.4 | 16.1 | 0.23 | 0.23 | 0.25 | 1 | 1013.1 |
| 20260502224232 | 14 | 101 | 4.8 | 12.9 | 0.18 | 0.18 | 0.20 | 1 | 1013.1 |
| 20260502223726 | 14 | 122 | 3.2 | 11.3 | 0.10 | 0.10 | 0.13 | 1 | 1013.7 |
| 20260502223220 | 14 | 81 | 3.2 | 8.0 | 0.08 | 0.08 | 0.08 | 1 | 1014.2 |
| 20260502222713 | 14 | 128 | 3.2 | 6.4 | 0.05 | 0.05 | 0.05 | 1 | 1014.2 |
| 20260502222210 | 15 | 97 | 4.8 | 16.1 | 0.05 | 0.05 | 0.05 | 1 | 1014.2 |
| 20260502221704 | 15 | 116 | 4.8 | 16.1 | 0.05 | 0.05 | 0.05 | 1 | 1014.5 |
| 20260502221424 | 15 | 139 | 6.4 | 14.5 | 0.00 | 0.00 | 0.00 | 1 | 1014.5 |
| 20260502220649 | 15 | 305 | 6.4 | 16.1 | 0.00 | 0.00 | 0.00 | 1 | 1015.1 |
| 20260502220143 | 14 | 150 | 4.8 | 16.1 | 0.00 | 0.00 | 0.00 | 1 | 1015.2 |
| 20260502215639 | 14 | 221 | 3.2 | 11.3 | 0.00 | 0.00 | 0.00 | 1 | 1015.0 |
| 20260502215132 | 14 | 118 | 1.6 | 8.0 | 0.00 | 0.00 | 0.00 | 1 | 1013.7 |
| 20260502214624 | 14 | 108 | 1.6 | 6.4 | 0.00 | 0.00 | 0.00 | 1 | 1013.5 |
| 20260502214122 | 14 | 115 | 1.6 | 6.4 | 0.00 | 0.00 | 0.00 | 1 | 1013.4 |
| 20260502213614 | 14 | 93 | 1.6 | 6.4 | 0.00 | 0.00 | 0.00 | 1 | 1013.6 |
| 20260502213109 | 14 | 96 | 1.6 | 11.3 | 0.00 | 0.00 | 0.00 | 1 | 1013.4 |
| 20260502212603 | 14 | 114 | 1.6 | 11.3 | 0.00 | 0.00 | 0.00 | 1 | 1013.5 |
| 20260502212103 | 14 | 124 | 1.6 | 9.7 | 0.00 | 0.00 | 0.00 | 1 | 1013.6 |
| 20260502211601 | 14 | 97 | 1.6 | 8.0 | 0.00 | 0.00 | 0.00 | 1 | 1013.6 |
| 20260502211321 | 14 | 103 | 1.6 | 8.0 | 0.00 | 0.00 | 0.00 | 1 | 1013.5 |
| 20260502210559 | 14 | 42 | 1.6 | 8.0 | 0.00 | 0.00 | 0.00 | 1 | 1013.6 |
| 20260502210114 | 14 | 108 | 1.6 | 6.4 | 0.00 | 0.00 | 0.00 | 1 | 1013.8 |
| 20260502210049 | 14 | 42 | 1.6 | 6.4 | 0.00 | 0.00 | 0.00 | 1 | 1013.9 |
| 20260502205101 | 14 | 114 | 1.6 | 4.8 | 0.00 | 0.00 | 0.00 | 1 | 1013.9 |
| 20260502204559 | 15 | 87 | 1.6 | 4.8 | 0.00 | 0.00 | 0.00 | 1 | 1014.0 |
| 20260502204058 | 15 | 113 | 1.6 | 8.0 | 0.00 | 0.00 | 0.00 | 1 | 1014.1 |
| 20260502203557 | 15 | 46 | 0.0 | 8.0 | 0.00 | 0.00 | 0.00 | 1 | 1014.1 |
| 20260502203058 | 15 | 62 | 1.6 | 8.0 | 0.00 | 0.00 | 0.00 | 1 | 1014.1 |
| 20260502202827 | 15 | 89 | 1.6 | 8.0 | 0.00 | 0.00 | 0.00 | 3 | 1014.3 |
| 20260502202056 | 15 | 43 | 1.6 | 4.8 | 0.00 | 0.00 | 0.00 | 6 | 1014.3 |
| 20260502201553 | 15 | 101 | 0.0 | 4.8 | 0.00 | 0.00 | 0.00 | 7 | 1014.4 |
| 20260502201056 | 15 | 296 | 0.0 | 1.6 | 0.00 | 0.00 | 0.00 | 13 | 1014.3 |
| 20260502200554 | 15 | 84 | 0.0 | 4.8 | 0.00 | 0.00 | 0.00 | 16 | 1014.5 |
| 20260502200108 | 15 | 32 | 0.0 | 4.8 | 0.00 | 0.00 | 0.00 | 20 | 1014.5 |
| 20260502200046 | 15 | 30 | 0.0 | 4.8 | 0.00 | 0.00 | 0.00 | 23 | 1014.6 |
| 20260502195047 | 16 | 154 | 0.0 | 6.4 | 0.00 | 0.00 | 0.00 | 27 | 1014.6 |
| 20260502194541 | 16 | 148 | 1.6 | 6.4 | 0.00 | 0.00 | 0.00 | 31 | 1014.5 |
| 20260502194033 | 16 | 40 | 0.0 | 4.8 | 0.00 | 0.00 | 0.00 | 37 | 1014.5 |
| 20260502193531 | 16 | 140 | 0.0 | 3.2 | 0.00 | 0.00 | 0.00 | 43 | 1014.5 |
| 20260502193037 | 16 | 268 | 1.6 | 4.8 | 0.00 | 0.00 | 0.00 | 47 | 1014.5 |
| 20260502192516 | 16 | 100 | 0.0 | 4.8 | 0.00 | 0.00 | 0.00 | 53 | 1014.5 |
| 20260502192012 | 16 | 120 | 0.0 | 0.0 | 0.00 | 0.00 | 0.00 | 56 | 1014.5 |
| 20260502191504 | 16 | 11 | 0.0 | 0.0 | 0.00 | 0.00 | 0.00 | 58 | 1014.6 |
| 20260502190959 | 16 | 73 | 0.0 | 0.0 | 0.00 | 0.00 | 0.00 | 59 | 1014.6 |
| 20260502190453 | 16 | 72 | 0.0 | 0.0 | 0.00 | 0.00 | 0.00 | 59 | 1014.7 |
| 20260502185946 | 16 | 72 | 0.0 | 0.0 | 0.00 | 0.00 | 0.00 | 59 | 1014.7 |
| 20260502185438 | 16 | 67 | 0.0 | 0.0 | 0.00 | 0.00 | 0.00 | 58 | 1014.7 |
| 20260502184930 | 16 | 83 | 0.0 | 0.0 | 0.00 | 0.00 | 0.00 | 58 | 1014.7 |
| 20260502184424 | 17 | 62 | 0.0 | 0.0 | 0.00 | 0.00 | 0.00 | 58 | 1014.6 |
| 20260502183919 | 17 | 62 | 0.0 | 1.6 | 0.00 | 0.00 | 0.00 | 58 | 1014.6 |
| 20260502183412 | 17 | 62 | 0.0 | 3.2 | 0.00 | 0.00 | 0.00 | 57 | 1014.6 |
| 20260502182906 | 17 | 44 | 0.0 | 4.8 | 0.00 | 0.00 | 0.00 | 56 | 1014.6 |
| 20260502182400 | 17 | 43 | 0.0 | 4.8 | 0.00 | 0.00 | 0.00 | 56 | 1014.5 |
| 20260502182116 | 17 | 61 | 0.0 | 6.4 | 0.00 | 0.00 | 0.00 | 56 | 1014.5 |
| 20260502181616 | 18 | 49 | 0.0 | 6.4 | 0.00 | 0.00 | 0.00 | 56 | 1014.5 |
| 20260502180842 | 18 | 134 | 0.0 | 3.2 | 0.00 | 0.00 | 0.00 | 57 | 1014.6 |
| 20260502180338 | 18 | 62 | 0.0 | 4.8 | 0.00 | 0.00 | 0.00 | 57 | 1014.6 |
| 20260502170246 | 20 | 257 | 0.0 | 4.8 | 0.00 | 0.00 | 0.00 | 49 | 1015.3 |
| 20260502164243 | 21 | 25 | 0.0 | 4.8 | 0.00 | 0.00 | 0.00 | 50 | 1015.6 |
| 20260502163742 | 21 | 272 | 0.0 | 6.4 | 0.00 | 0.00 | 0.00 | 49 | 1015.6 |
| 20260502163241 | 20 | 145 | 1.6 | 8.0 | 0.00 | 0.00 | 0.00 | 49 | 1015.7 |
| 20260502162740 | 20 | 269 | 3.2 | 8.0 | 0.00 | 0.00 | 0.00 | 46 | 1015.7 |
| 20260502162238 | 20 | 293 | 3.2 | 11.3 | 0.00 | 0.00 | 0.00 | 51 | 1015.7 |
| 20260502161737 | 20 | 293 | 4.8 | 11.3 | 0.00 | 0.00 | 0.00 | 47 | 1015.8 |
| 20260502161237 | 20 | 290 | 3.2 | 11.3 | 0.00 | 0.00 | 0.00 | 45 | 1015.8 |
| 20260502161004 | 20 | 299 | 3.2 | 11.3 | 0.00 | 0.00 | 0.00 | 46 | 1015.8 |
| 20260502160238 | 20 | 264 | 3.2 | 11.3 | 0.00 | 0.00 | 0.00 | 47 | 1015.8 |
| 20260502152224 | 21 | 209 | 1.6 | 8.0 | 0.00 | 0.00 | 0.00 | 49 | 1016.1 |
| 20260502151723 | 21 | 293 | 1.6 | 8.0 | 0.00 | 0.00 | 0.00 | 51 | 1016.1 |
| 20260502151449 | 21 | 293 | 3.2 | 9.7 | 0.00 | 0.00 | 0.00 | 51 | 1016.1 |
| 20260502150723 | 21 | 285 | 3.2 | 12.9 | 0.00 | 0.00 | 0.00 | 51 | 1016.2 |
| 20260502150226 | 21 | 274 | 3.2 | 12.9 | 0.00 | 0.00 | 0.00 | 51 | 1016.3 |
| 20260502130201 | 20 | 261 | 6.4 | 14.5 | 0.00 | 0.00 | 0.00 | 48 | 1017.1 |
| 20260502123701 | 20 | 283 | 4.8 | 12.9 | 0.00 | 0.00 | 0.00 | 41 | 1017.4 |
| 20260502123420 | 20 | 302 | 4.8 | 16.1 | 0.00 | 0.00 | 0.00 | 37 | 1017.4 |
| 20260502122655 | 20 | 248 | 4.8 | 16.1 | 0.00 | 0.00 | 0.00 | 39 | 1017.4 |
| 20260502122155 | 20 | 295 | 4.8 | 16.1 | 0.00 | 0.00 | 0.00 | 40 | 1017.4 |
| 20260502121655 | 20 | 274 | 6.4 | 16.1 | 0.00 | 0.00 | 0.00 | 43 | 1017.4 |
| 20260502121155 | 21 | 292 | 4.8 | 12.9 | 0.00 | 0.00 | 0.00 | 47 | 1017.4 |
| 20260502120654 | 21 | 243 | 4.8 | 14.5 | 0.00 | 0.00 | 0.00 | 45 | 1017.4 |
| 20260502120256 | 21 | 215 | 4.8 | 16.1 | 0.00 | 0.00 | 0.00 | 44 | 1017.5 |
| 20260502115148 | 21 | 277 | 4.8 | 12.9 | 0.00 | 0.00 | 0.00 | 46 | 1017.5 |
| 20260502114905 | 21 | 252 | 3.2 | 11.3 | 0.00 | 0.00 | 0.00 | 39 | 1017.6 |
| 20260502114134 | 20 | 240 | 3.2 | 11.3 | 0.00 | 0.00 | 0.00 | 31 | 1017.6 |
| 20260502113626 | 20 | 278 | 4.8 | 17.7 | 0.00 | 0.00 | 0.00 | 23 | 1017.7 |
| 20260502113120 | 20 | 267 | 4.8 | 17.7 | 0.00 | 0.00 | 0.00 | 30 | 1017.8 |
| 20260502112614 | 20 | 300 | 3.2 | 12.9 | 0.00 | 0.00 | 0.00 | 30 | 1017.8 |
| 20260502112109 | 20 | 210 | 3.2 | 9.7 | 0.00 | 0.00 | 0.00 | 25 | 1017.9 |
| 20260502111601 | 20 | 292 | 4.8 | 12.9 | 0.00 | 0.00 | 0.00 | 22 | 1017.9 |
| 20260502111058 | 20 | 238 | 4.8 | 12.9 | 0.00 | 0.00 | 0.00 | 18 | 1017.9 |
| 20260502110551 | 20 | 305 | 6.4 | 19.3 | 0.00 | 0.00 | 0.00 | 15 | 1017.8 |
| 20260502110059 | 19 | 259 | 6.4 | 19.3 | 0.00 | 0.00 | 0.00 | 16 | 1017.8 |
| 20260502105540 | 19 | 278 | 6.4 | 14.5 | 0.00 | 0.00 | 0.00 | 17 | 1017.9 |
| 20260502105032 | 19 | 289 | 6.4 | 12.9 | 0.00 | 0.00 | 0.00 | 15 | 1017.9 |
| 20260502104757 | 19 | 281 | 6.4 | 12.9 | 0.00 | 0.00 | 0.00 | 16 | 1017.9 |
| 20260502104024 | 20 | 290 | 4.8 | 14.5 | 0.00 | 0.00 | 0.00 | 13 | 1017.9 |
| 20260502103516 | 20 | 304 | 4.8 | 14.5 | 0.00 | 0.00 | 0.00 | 13 | 1017.9 |
| 20260502103008 | 20 | 338 | 6.4 | 12.9 | 0.00 | 0.00 | 0.00 | 22 | 1018.0 |
| 20260502102502 | 20 | 262 | 4.8 | 12.9 | 0.00 | 0.00 | 0.00 | 32 | 1018.0 |
| 20260502102221 | 20 | 274 | 4.8 | 12.9 | 0.00 | 0.00 | 0.00 | 24 | 1018.0 |
| 20260502101452 | 20 | 298 | 4.8 | 12.9 | 0.00 | 0.00 | 0.00 | 27 | 1018.0 |
| 20260502100946 | 20 | 292 | 4.8 | 11.3 | 0.00 | 0.00 | 0.00 | 20 | 1018.0 |
| 20260502100448 | 19 | 346 | 4.8 | 12.9 | 0.00 | 0.00 | 0.00 | 25 | 1018.0 |
| 20260502091443 | 17 | 279 | 3.2 | 11.3 | 0.00 | 0.00 | 0.00 | 1 | 1018.3 |
| 20260502091209 | 17 | 280 | 3.2 | 11.3 | 0.00 | 0.00 | 0.00 | 1 | 1018.2 |
| 20260502090443 | 17 | 270 | 3.2 | 8.0 | 0.00 | 0.00 | 0.00 | 1 | 1018.2 |
| 20260502071406 | 15 | 289 | 0.0 | 0.0 | 0.00 | 0.00 | 0.00 | 20 | 1018.3 |
| 20260502070853 | 15 | 222 | 0.0 | 0.0 | 0.00 | 0.00 | 0.00 | 20 | 1018.4 |
| 20260502070351 | 15 | 233 | 0.0 | 0.0 | 0.00 | 0.00 | 0.00 | 23 | 1018.3 |
| 20260502070117 | 15 | 118 | 0.0 | 0.0 | 0.00 | 0.00 | 0.00 | 26 | 1018.3 |
| 20260502065347 | 15 | 113 | 0.0 | 0.0 | 0.00 | 0.00 | 0.00 | 28 | 1018.2 |
| 20260502064847 | 15 | 120 | 0.0 | 1.6 | 0.00 | 0.00 | 0.00 | 28 | 1018.2 |
| 20260502064345 | 14 | 87 | 0.0 | 1.6 | 0.00 | 0.00 | 0.00 | 25 | 1018.2 |
| 20260502063850 | 14 | 122 | 0.0 | 0.0 | 0.00 | 0.00 | 0.00 | 23 | 1018.2 |
| 20260502063342 | 14 | 139 | 0.0 | 0.0 | 0.00 | 0.00 | 0.00 | 24 | 1018.2 |
| 20260502063104 | 14 | 139 | 0.0 | 0.0 | 0.00 | 0.00 | 0.00 | 22 | 1018.2 |
| 20260502062336 | 13 | 159 | 0.0 | 0.0 | 0.00 | 0.00 | 0.00 | 22 | 1018.2 |
| 20260502061836 | 13 | 160 | 0.0 | 1.6 | 0.00 | 0.00 | 0.00 | 20 | 1018.2 |
| 20260502061331 | 13 | 148 | 0.0 | 1.6 | 0.00 | 0.00 | 0.00 | 21 | 1018.2 |
| 20260502060834 | 13 | 110 | 0.0 | 0.0 | 0.00 | 0.00 | 0.00 | 27 | 1018.3 |
| 20260502060332 | 13 | 125 | 0.0 | 0.0 | 0.00 | 0.00 | 0.00 | 33 | 1018.2 |
| 20260502055831 | 13 | 126 | 0.0 | 1.6 | 0.00 | 0.00 | 0.00 | 37 | 1018.2 |
| 20260502055328 | 13 | 172 | 0.0 | 1.6 | 0.00 | 0.00 | 0.00 | 42 | 1018.2 |
| 20260502054830 | 13 | 207 | 0.0 | 3.2 | 0.00 | 0.00 | 0.00 | 44 | 1018.2 |
| 20260502054325 | 12 | 252 | 0.0 | 3.2 | 0.00 | 0.00 | 0.00 | 47 | 1018.2 |
| 20260502053824 | 12 | 122 | 0.0 | 0.0 | 0.00 | 0.00 | 0.00 | 48 | 1017.9 |